createdAt,value
2019-03-22T09:52:36.119Z,102693.22
2019-03-22T09:57:29.220Z,102695.37
2019-03-22T10:02:22.199Z,102689.03
2019-03-22T10:07:15.326Z,102679.09
2019-03-22T10:12:11.188Z,102673.03
2019-03-22T10:17:03.130Z,102670.89
2019-03-22T10:21:56.051Z,102664.25
2019-03-22T10:26:49.013Z,102661.80
2019-03-22T10:31:41.643Z,102662.92
2019-03-22T10:36:34.117Z,102660.19
2019-03-22T10:41:26.763Z,102651.14
2019-03-22T10:46:19.029Z,102651.37
2019-03-22T10:51:11.694Z,102645.20
2019-03-22T10:56:04.374Z,102635.53
2019-03-22T11:00:57.570Z,102633.90
2019-03-22T11:05:50.046Z,102623.84
2019-03-22T11:10:42.491Z,102618.48
2019-03-22T11:15:35.126Z,102608.89
2019-03-22T11:20:27.718Z,102609.69
2019-03-22T11:25:20.602Z,102605.12
2019-03-22T11:30:12.942Z,102595.45
2019-03-22T11:35:05.541Z,102585.12
2019-03-22T11:39:58.355Z,102573.66
2019-03-22T11:44:50.878Z,102573.06
2019-03-22T11:49:43.252Z,102558.12
2019-03-22T11:54:35.630Z,102552.82
2019-03-22T11:59:28.367Z,102541.44
2019-03-22T12:04:21.051Z,102530.14
2019-03-22T12:09:13.482Z,102534.75
2019-03-22T12:14:05.832Z,102518.45
2019-03-22T12:18:58.587Z,102505.72
2019-03-22T12:23:51.036Z,102494.48
2019-03-22T12:28:43.612Z,102486.48
2019-03-22T12:33:36.137Z,102479.45
2019-03-22T12:38:28.558Z,102466.81
2019-03-22T12:43:21.013Z,102465.41
2019-03-22T12:48:13.452Z,102458.80
2019-03-22T12:53:06.082Z,102457.41
2019-03-22T12:58:00.664Z,102452.66
2019-03-22T13:02:52.548Z,102445.16
2019-03-22T13:07:45.095Z,102436.86
2019-03-22T13:12:37.429Z,102422.42
2019-03-22T13:17:29.852Z,102415.25
2019-03-22T13:22:22.062Z,102410.37
2019-03-22T13:27:14.541Z,102404.18
2019-03-22T13:32:07.025Z,102393.52
2019-03-22T13:36:59.553Z,102384.36
2019-03-22T13:41:52.244Z,102385.89
2019-03-22T13:46:44.628Z,102377.83
2019-03-22T13:51:37.264Z,102376.95
2019-03-22T13:56:29.696Z,102371.52
2019-03-22T14:01:22.286Z,102366.95
2019-03-22T14:06:14.744Z,102353.88
2019-03-22T14:11:07.334Z,102344.60
2019-03-22T14:15:59.651Z,102340.25
2019-03-22T14:20:52.873Z,102327.55
2019-03-22T14:25:45.292Z,102332.70
2019-03-22T14:30:38.091Z,102318.92
2019-03-22T14:35:30.760Z,102308.13
2019-03-22T14:40:23.473Z,102312.67
2019-03-22T14:45:15.927Z,102298.86
2019-03-22T14:50:08.326Z,102291.02
2019-03-22T14:55:01.231Z,102296.41
2019-03-22T15:00:00.738Z,102286.66
2019-03-22T15:04:51.159Z,102288.98
2019-03-22T15:09:43.062Z,102282.59
2019-03-22T15:14:34.998Z,102278.28
2019-03-22T15:19:27.100Z,102276.38
2019-03-22T15:24:19.007Z,102266.25
2019-03-22T15:29:11.738Z,102258.98
2019-03-22T15:34:06.321Z,102255.42
2019-03-22T15:38:58.898Z,102257.14
2019-03-22T15:43:51.019Z,102261.05
2019-03-22T15:48:43.389Z,102250.42
2019-03-22T15:53:35.696Z,102239.36
2019-03-22T15:58:28.074Z,102250.56
2019-03-22T16:03:20.298Z,102247.72
2019-03-22T16:08:12.545Z,102239.72
2019-03-22T16:13:04.887Z,102239.93
2019-03-22T16:17:57.309Z,102238.77
2019-03-22T16:22:49.764Z,102234.76
2019-03-22T16:27:44.115Z,102234.67
2019-03-22T16:32:35.920Z,102232.45
2019-03-22T16:37:28.253Z,102232.30
2019-03-22T16:42:20.517Z,102230.00
2019-03-22T16:47:12.633Z,102222.45
2019-03-22T16:52:04.998Z,102218.38
2019-03-22T16:56:57.157Z,102213.52
2019-03-22T17:01:49.582Z,102215.28
2019-03-22T17:06:41.913Z,102208.86
2019-03-22T17:11:34.196Z,102211.66
2019-03-22T17:16:26.631Z,102207.86
2019-03-22T17:21:19.149Z,102202.94
2019-03-22T17:26:11.532Z,102207.30
2019-03-22T17:31:03.789Z,102210.45
2019-03-22T17:35:56.077Z,102206.91
2019-03-22T17:40:48.361Z,102217.38
2019-03-22T17:45:40.646Z,102216.57
2019-03-22T17:50:32.737Z,102215.38
2019-03-22T17:55:24.714Z,102213.66
2019-03-22T18:00:16.842Z,102221.84
2019-03-22T18:05:09.069Z,102224.84
2019-03-22T18:10:01.114Z,102229.65
2019-03-22T18:14:53.127Z,102235.77
2019-03-22T18:19:45.498Z,102235.92
2019-03-22T18:24:37.726Z,102243.19
2019-03-22T18:29:29.825Z,102246.84
2019-03-22T18:34:22.170Z,102254.83
2019-03-22T18:39:14.399Z,102256.59
2019-03-22T18:44:10.756Z,102259.01
2019-03-22T18:49:02.469Z,102264.02
2019-03-22T18:53:55.457Z,102256.45
2019-03-22T18:58:47.250Z,102262.83
2019-03-22T19:03:39.340Z,102273.27
2019-03-22T19:08:31.358Z,102268.36
2019-03-22T19:13:33.319Z,102268.95
2019-03-22T19:18:25.462Z,102271.78
2019-03-22T19:23:17.210Z,102273.20
2019-03-22T19:28:08.945Z,102270.87
2019-03-22T19:33:06.740Z,102261.17
2019-03-22T19:37:58.218Z,102270.23
2019-03-22T19:42:49.948Z,102263.86
2019-03-22T19:47:42.009Z,102272.98
2019-03-22T19:52:33.982Z,102276.14
2019-03-22T19:57:25.929Z,102282.05
2019-03-22T20:02:18.597Z,102271.84
2019-03-22T20:07:10.259Z,102270.78
2019-03-22T20:12:02.390Z,102265.30
2019-03-22T20:16:54.392Z,102264.66
2019-03-22T20:21:46.360Z,102264.95
2019-03-22T20:26:38.463Z,102267.25
2019-03-22T20:31:30.334Z,102264.15
2019-03-22T20:36:22.060Z,102270.07
2019-03-22T20:41:13.845Z,102277.56
2019-03-22T20:46:06.030Z,102273.23
2019-03-22T20:50:58.300Z,102272.50
2019-03-22T20:55:50.475Z,102268.19
2019-03-22T21:00:43.391Z,102263.34
2019-03-22T21:05:35.507Z,102271.68
2019-03-22T21:10:29.619Z,102273.35
2019-03-22T21:15:26.217Z,102269.27
2019-03-22T21:20:17.167Z,102260.52
2019-03-22T21:25:08.826Z,102261.55
2019-03-22T21:30:01.231Z,102266.05
2019-03-22T21:34:52.785Z,102257.75
2019-03-22T21:39:44.955Z,102262.84
2019-03-22T21:44:36.882Z,102266.70
2019-03-22T21:49:31.296Z,102269.56
2019-03-22T21:54:22.503Z,102266.70
2019-03-22T21:59:14.597Z,102269.81
2019-03-22T22:04:08.560Z,102267.17
2019-03-22T22:09:00.282Z,102273.66
2019-03-22T22:13:52.574Z,102276.14
2019-03-22T22:18:44.623Z,102280.66
2019-03-22T22:23:36.486Z,102281.89
2019-03-22T22:28:28.066Z,102282.38
2019-03-22T22:33:20.032Z,102285.85
2019-03-22T22:38:11.818Z,102295.88
2019-03-22T22:43:03.795Z,102302.30
2019-03-22T22:47:55.437Z,102305.13
2019-03-22T22:52:47.558Z,102299.91
2019-03-22T22:57:39.590Z,102302.30
2019-03-22T23:02:31.709Z,102309.06
2019-03-22T23:07:23.954Z,102314.94
2019-03-22T23:12:15.970Z,102321.48
2019-03-22T23:17:08.180Z,102325.04
2019-03-22T23:22:00.425Z,102318.69
2019-03-22T23:26:52.526Z,102321.89
2019-03-22T23:31:44.449Z,102330.16
2019-03-22T23:36:36.439Z,102324.41
2019-03-22T23:41:28.475Z,102323.05
2019-03-22T23:46:20.403Z,102324.63
2019-03-22T23:51:12.237Z,102324.41
2019-03-22T23:56:04.286Z,102326.16
